createdAt,value
2022-08-16T00:04:59.790Z,18.90
2022-08-16T00:07:29.510Z,18.90
2022-08-16T00:09:59.387Z,18.90
2022-08-16T00:12:29.364Z,18.90
2022-08-16T00:15:13.330Z,18.90
2022-08-16T00:17:56.979Z,18.90
2022-08-16T00:20:27.977Z,18.90
2022-08-16T00:22:58.833Z,18.90
2022-08-16T00:25:34.370Z,18.90
2022-08-16T00:30:45.732Z,18.90
2022-08-16T00:33:15.516Z,18.90
2022-08-16T00:35:46.075Z,19.00
2022-08-16T00:38:40.985Z,19.00
2022-08-16T00:41:07.274Z,18.90
2022-08-16T00:43:40.689Z,18.90
2022-08-16T00:46:22.378Z,18.90
2022-08-16T00:49:02.683Z,18.80
2022-08-16T00:51:32.498Z,18.90
2022-08-16T00:54:02.869Z,18.80
2022-08-16T00:56:58.538Z,18.80
2022-08-16T00:59:27.918Z,18.80
2022-08-16T01:01:57.065Z,18.80
2022-08-16T01:04:30.922Z,18.70
2022-08-16T01:07:06.683Z,18.70
2022-08-16T01:09:42.903Z,18.60
2022-08-16T01:12:26.268Z,18.60
2022-08-16T01:15:00.947Z,18.60
2022-08-16T01:17:36.851Z,18.60
2022-08-16T01:20:24.519Z,18.50
2022-08-16T01:23:09.053Z,18.50
2022-08-16T01:25:44.086Z,18.40
2022-08-16T01:28:19.639Z,18.40
2022-08-16T01:30:54.261Z,18.40
2022-08-16T01:33:24.626Z,18.40
2022-08-16T01:36:12.173Z,18.30
2022-08-16T01:38:49.075Z,18.30
2022-08-16T01:41:29.701Z,18.30
2022-08-16T01:46:39.131Z,18.30
2022-08-16T01:49:43.468Z,18.20
2022-08-16T01:52:29.407Z,18.20
2022-08-16T01:55:26.031Z,18.20
2022-08-16T01:58:06.195Z,18.20
2022-08-16T02:00:40.314Z,18.20
2022-08-16T02:03:12.556Z,18.20
2022-08-16T02:05:51.717Z,18.10
2022-08-16T02:08:33.385Z,18.10
2022-08-16T02:11:06.933Z,18.10
2022-08-16T02:13:41.637Z,18.00
2022-08-16T02:16:18.749Z,18.00
2022-08-16T02:18:48.781Z,18.00
2022-08-16T02:21:31.337Z,18.00
2022-08-16T02:26:29.617Z,18.00
2022-08-16T02:29:04.525Z,17.90
2022-08-16T02:32:03.068Z,18.00
2022-08-16T02:34:32.905Z,17.90
2022-08-16T02:37:10.977Z,18.00
2022-08-16T02:39:41.428Z,17.90
2022-08-16T02:42:10.289Z,17.90
2022-08-16T02:44:42.489Z,17.90
2022-08-16T02:50:52.874Z,17.80
2022-08-16T02:52:43.909Z,17.80
2022-08-16T02:55:15.658Z,17.80
2022-08-16T02:57:54.093Z,17.70
2022-08-16T03:00:34.553Z,17.60
2022-08-16T03:03:10.615Z,17.60
2022-08-16T03:05:39.634Z,17.50
2022-08-16T03:08:50.381Z,17.60
2022-08-16T03:11:00.353Z,17.50
2022-08-16T03:16:00.077Z,17.40
2022-08-16T03:18:34.464Z,17.40
2022-08-16T03:21:10.085Z,17.40
2022-08-16T03:23:38.805Z,17.40
2022-08-16T03:26:09.626Z,17.40
2022-08-16T03:28:39.435Z,17.40
2022-08-16T03:31:10.404Z,17.40
2022-08-16T03:33:43.842Z,17.40
2022-08-16T03:36:29.889Z,17.40
2022-08-16T03:39:03.583Z,17.40
2022-08-16T03:44:44.681Z,17.40
2022-08-16T03:47:13.468Z,17.40
2022-08-16T03:49:51.648Z,17.30
2022-08-16T03:52:23.575Z,17.30
2022-08-16T03:54:58.182Z,17.30
2022-08-16T03:57:31.632Z,17.20
2022-08-16T04:00:20.703Z,17.10
2022-08-16T04:03:08.804Z,17.00
2022-08-16T04:05:44.612Z,17.00
2022-08-16T04:08:23.813Z,16.90
2022-08-16T04:10:57.902Z,16.80
2022-08-16T04:19:02.025Z,16.80
2022-08-16T04:21:32.299Z,16.80
2022-08-16T04:24:02.026Z,16.80
2022-08-16T04:26:32.669Z,16.90
2022-08-16T04:29:16.266Z,16.90
2022-08-16T04:31:56.056Z,16.90
2022-08-16T04:34:33.474Z,16.90
2022-08-16T04:37:03.325Z,16.90
2022-08-16T04:39:47.065Z,17.00
2022-08-16T04:44:57.612Z,17.10
2022-08-16T04:47:35.502Z,17.20
2022-08-16T04:50:14.502Z,17.30
2022-08-16T04:52:59.927Z,17.30
2022-08-16T04:55:38.255Z,17.40
2022-08-16T04:58:38.490Z,17.40
2022-08-16T05:01:00.855Z,17.50
2022-08-16T05:03:31.802Z,17.50
2022-08-16T05:06:06.993Z,17.50
2022-08-16T05:08:36.005Z,17.50
2022-08-16T05:11:15.812Z,17.50
2022-08-16T05:13:49.312Z,17.50
2022-08-16T05:16:27.955Z,17.60
2022-08-16T05:22:07.291Z,17.70
2022-08-16T05:24:47.447Z,17.80
2022-08-16T05:27:15.992Z,17.80
2022-08-16T05:30:00.966Z,17.90
2022-08-16T05:32:36.596Z,17.90
2022-08-16T05:35:16.558Z,18.00
2022-08-16T05:38:32.305Z,18.10
2022-08-16T05:41:01.965Z,18.10
2022-08-16T05:46:29.700Z,18.30
2022-08-16T05:51:42.500Z,18.30
2022-08-16T05:54:24.958Z,18.40
2022-08-16T05:56:57.863Z,18.40
2022-08-16T06:01:59.716Z,18.60
2022-08-16T06:04:35.639Z,18.60
2022-08-16T06:07:24.356Z,18.70
2022-08-16T06:10:05.180Z,18.80
2022-08-16T06:12:36.895Z,18.90
2022-08-16T06:15:14.889Z,19.10
2022-08-16T06:17:46.349Z,19.20
2022-08-16T06:20:34.826Z,19.20
2022-08-16T06:23:16.927Z,19.20
2022-08-16T06:26:03.775Z,19.20
2022-08-16T06:28:39.111Z,19.20
2022-08-16T06:31:15.368Z,19.20
2022-08-16T06:33:47.927Z,19.30
2022-08-16T06:36:21.771Z,19.40
2022-08-16T06:39:00.304Z,19.40
2022-08-16T06:41:43.962Z,19.50
2022-08-16T06:44:24.488Z,19.60
2022-08-16T06:49:31.983Z,19.80
2022-08-16T06:52:02.933Z,19.80
2022-08-16T06:54:36.365Z,19.90
2022-08-16T06:57:16.548Z,20.00
2022-08-16T06:59:52.790Z,20.10
2022-08-16T07:02:32.895Z,20.10
2022-08-16T07:07:50.686Z,20.20
2022-08-16T07:10:25.859Z,20.40
2022-08-16T07:13:04.431Z,20.50
2022-08-16T07:15:50.488Z,20.70
2022-08-16T07:18:24.859Z,21.10
2022-08-16T07:20:57.794Z,21.10
2022-08-16T07:23:37.000Z,21.50
2022-08-16T07:26:24.878Z,21.70
2022-08-16T07:28:56.898Z,21.90
2022-08-16T07:31:25.415Z,22.20
2022-08-16T07:34:10.023Z,22.60
2022-08-16T07:36:39.009Z,23.20
2022-08-16T07:39:08.747Z,23.80
2022-08-16T07:41:40.157Z,24.20
2022-08-16T07:44:15.425Z,24.60
2022-08-16T07:46:45.069Z,25.00
2022-08-16T07:49:22.674Z,25.30
2022-08-16T07:51:55.997Z,25.50
2022-08-16T07:54:37.955Z,25.80
2022-08-16T07:57:12.150Z,26.00
2022-08-16T07:59:45.998Z,26.10
2022-08-16T08:02:20.618Z,26.30
2022-08-16T08:04:55.469Z,26.40
2022-08-16T08:07:28.106Z,26.50
2022-08-16T08:09:58.440Z,26.60
2022-08-16T08:12:32.495Z,26.70
2022-08-16T08:15:11.341Z,26.90
2022-08-16T08:17:44.086Z,27.00
2022-08-16T08:20:27.976Z,27.00
2022-08-16T08:23:02.737Z,27.20
2022-08-16T08:25:54.102Z,27.30
2022-08-16T08:28:24.130Z,27.50
2022-08-16T08:31:02.436Z,27.80
2022-08-16T08:33:34.941Z,28.00
2022-08-16T08:36:10.196Z,26.30
2022-08-16T08:38:44.291Z,28.10
2022-08-16T08:41:18.284Z,28.10
2022-08-16T08:43:50.377Z,28.10
2022-08-16T08:46:23.621Z,28.00
2022-08-16T08:49:00.125Z,28.10
2022-08-16T08:51:36.810Z,28.30
2022-08-16T08:54:09.753Z,28.70
2022-08-16T08:56:45.271Z,28.90
2022-08-16T08:59:33.694Z,29.00
2022-08-16T09:02:08.887Z,27.80
2022-08-16T09:04:47.875Z,28.20
2022-08-16T09:07:22.096Z,27.60
2022-08-16T09:10:06.369Z,27.10
2022-08-16T09:12:38.100Z,26.70
2022-08-16T09:15:13.757Z,26.80
2022-08-16T09:17:52.151Z,27.40
2022-08-16T09:20:30.329Z,28.10
2022-08-16T09:23:02.340Z,28.20
2022-08-16T09:25:36.044Z,28.20
2022-08-16T09:28:09.371Z,28.20
2022-08-16T09:30:45.222Z,28.60
2022-08-16T09:33:19.903Z,28.90
2022-08-16T09:35:53.519Z,28.90
2022-08-16T09:38:32.049Z,28.90
2022-08-16T09:41:02.665Z,28.60
2022-08-16T09:43:59.435Z,29.60
2022-08-16T09:46:44.923Z,30.50
2022-08-16T09:49:13.940Z,30.50
2022-08-16T09:51:42.409Z,31.00
2022-08-16T09:54:17.174Z,31.40
2022-08-16T09:56:52.835Z,31.80
2022-08-16T09:59:25.673Z,31.80
2022-08-16T10:01:59.584Z,31.60
2022-08-16T10:04:36.634Z,31.50
2022-08-16T10:07:16.020Z,31.60
2022-08-16T10:09:54.682Z,31.80
2022-08-16T10:12:44.405Z,32.00
2022-08-16T10:15:17.876Z,32.10
2022-08-16T10:18:01.361Z,32.30
2022-08-16T10:20:35.994Z,32.50
2022-08-16T10:23:09.912Z,32.70
2022-08-16T10:27:16.381Z,33.00
2022-08-16T10:28:40.162Z,33.20
2022-08-16T10:31:16.907Z,33.40
2022-08-16T10:34:02.274Z,33.50
2022-08-16T10:36:39.237Z,33.30
2022-08-16T10:39:08.779Z,33.10
2022-08-16T10:41:37.446Z,33.00
2022-08-16T10:44:09.441Z,33.00
2022-08-16T10:46:41.845Z,33.10
2022-08-16T10:49:12.381Z,33.30
2022-08-16T10:52:01.735Z,33.10
2022-08-16T10:54:31.316Z,32.40
2022-08-16T10:57:00.943Z,32.40
2022-08-16T10:59:46.027Z,32.40
2022-08-16T11:02:57.834Z,32.50
2022-08-16T11:05:16.520Z,32.90
2022-08-16T11:07:52.483Z,33.10
2022-08-16T11:13:57.575Z,33.20
2022-08-16T11:19:06.483Z,33.50
2022-08-16T11:24:41.515Z,33.90
2022-08-16T11:27:24.165Z,34.20
2022-08-16T11:30:01.849Z,34.60
2022-08-16T11:32:33.635Z,34.90
2022-08-16T11:35:13.883Z,34.70
2022-08-16T11:40:44.246Z,34.50
2022-08-16T11:43:16.918Z,34.20
2022-08-16T11:45:53.959Z,34.10
2022-08-16T11:48:24.559Z,34.30
2022-08-16T11:50:53.526Z,34.50
2022-08-16T11:53:22.759Z,34.50
2022-08-16T11:55:55.256Z,34.40
2022-08-16T11:58:26.090Z,34.50
2022-08-16T12:00:59.217Z,34.50
2022-08-16T12:03:36.757Z,34.70
2022-08-16T12:06:25.123Z,34.80
2022-08-16T12:09:02.260Z,34.90
2022-08-16T12:11:33.964Z,34.80
2022-08-16T12:14:04.724Z,35.10
2022-08-16T12:16:35.669Z,35.50
2022-08-16T12:19:06.509Z,35.90
2022-08-16T12:21:58.487Z,36.30
2022-08-16T12:24:29.285Z,36.50
2022-08-16T12:26:59.986Z,36.80
2022-08-16T12:29:29.807Z,36.50
2022-08-16T12:32:26.561Z,36.50
2022-08-16T12:34:50.649Z,36.40
2022-08-16T12:37:24.386Z,36.00
2022-08-16T12:39:55.892Z,35.60
2022-08-16T12:42:35.188Z,35.60
2022-08-16T12:45:08.377Z,35.70
2022-08-16T12:48:09.904Z,35.80
2022-08-16T12:50:43.229Z,35.80
2022-08-16T12:53:20.530Z,35.70
2022-08-16T12:55:50.252Z,35.70
2022-08-16T12:58:49.468Z,36.00
2022-08-16T13:01:11.300Z,36.50
2022-08-16T13:04:12.444Z,37.20
2022-08-16T13:06:52.320Z,37.50
2022-08-16T13:09:24.178Z,37.50
2022-08-16T13:12:03.669Z,37.60
2022-08-16T13:14:41.354Z,37.60
2022-08-16T13:17:18.686Z,37.50
2022-08-16T13:20:08.272Z,37.50
2022-08-16T13:25:21.157Z,38.20
2022-08-16T13:28:02.308Z,38.40
2022-08-16T13:30:41.890Z,38.50
2022-08-16T13:33:16.933Z,38.40
2022-08-16T13:35:55.703Z,38.10
2022-08-16T13:38:37.294Z,37.60
2022-08-16T13:41:08.313Z,35.80
2022-08-16T13:43:39.254Z,35.80
2022-08-16T13:46:09.845Z,36.10
2022-08-16T13:48:44.764Z,36.80
2022-08-16T13:51:17.513Z,37.50
2022-08-16T13:53:54.232Z,38.20
2022-08-16T13:56:36.860Z,38.60
2022-08-16T13:59:19.545Z,38.50
2022-08-16T14:01:55.461Z,38.60
2022-08-16T14:04:27.635Z,38.80
2022-08-16T14:06:58.708Z,39.10
2022-08-16T14:09:29.102Z,39.30
2022-08-16T14:11:58.609Z,39.40
2022-08-16T14:14:30.352Z,39.40
2022-08-16T14:17:03.165Z,39.50
2022-08-16T14:19:31.959Z,39.70
2022-08-16T14:22:13.758Z,39.70
2022-08-16T14:24:45.363Z,39.70
2022-08-16T14:27:17.741Z,39.70
2022-08-16T14:29:49.296Z,39.80
2022-08-16T14:32:27.236Z,39.70
2022-08-16T14:35:07.277Z,39.20
2022-08-16T14:37:36.904Z,38.70
2022-08-16T14:40:06.832Z,38.50
2022-08-16T14:42:36.743Z,38.30
2022-08-16T14:45:07.579Z,38.20
2022-08-16T14:47:38.463Z,38.50
2022-08-16T14:50:10.002Z,39.00
2022-08-16T14:52:58.280Z,39.10
2022-08-16T14:55:29.965Z,39.00
2022-08-16T14:57:59.074Z,38.80
2022-08-16T15:00:36.360Z,38.60
2022-08-16T15:03:10.594Z,38.30
2022-08-16T15:05:41.686Z,38.20
2022-08-16T15:08:11.192Z,38.30
2022-08-16T15:10:42.906Z,38.60
2022-08-16T15:13:15.656Z,38.70
2022-08-16T15:15:45.355Z,38.80
2022-08-16T15:18:31.938Z,38.90
2022-08-16T15:21:02.094Z,38.90
2022-08-16T15:23:33.595Z,39.00
2022-08-16T15:26:04.515Z,39.10
2022-08-16T15:28:38.092Z,39.00
2022-08-16T15:31:10.360Z,38.80
2022-08-16T15:33:50.748Z,38.70
2022-08-16T15:36:23.632Z,38.40
2022-08-16T15:39:05.559Z,38.10
2022-08-16T15:42:03.425Z,38.20
2022-08-16T15:44:45.087Z,38.50
2022-08-16T15:47:25.783Z,38.70
2022-08-16T15:49:57.851Z,38.60
2022-08-16T15:52:32.670Z,38.40
2022-08-16T15:55:07.548Z,38.60
2022-08-16T15:57:52.643Z,38.40
2022-08-16T16:00:22.241Z,38.20
2022-08-16T16:03:04.214Z,38.10
2022-08-16T16:05:41.202Z,38.10
2022-08-16T16:08:10.999Z,37.90
2022-08-16T16:10:43.303Z,37.90
2022-08-16T16:13:13.244Z,37.60
2022-08-16T16:15:46.084Z,37.60
2022-08-16T16:18:15.985Z,36.70
2022-08-16T16:20:50.124Z,37.60
2022-08-16T16:23:24.631Z,37.50
2022-08-16T16:25:54.711Z,37.40
2022-08-16T16:29:08.576Z,37.40
2022-08-16T16:31:18.419Z,37.50
2022-08-16T16:33:55.663Z,37.60
2022-08-16T16:36:29.577Z,37.70
2022-08-16T16:38:58.406Z,37.90
2022-08-16T16:41:28.846Z,37.90
2022-08-16T16:44:00.905Z,38.00
2022-08-16T16:46:42.719Z,38.20
2022-08-16T16:49:14.498Z,38.30
2022-08-16T16:51:50.118Z,38.30
2022-08-16T16:54:28.062Z,38.20
2022-08-16T16:56:58.437Z,38.10
2022-08-16T16:59:27.972Z,37.80
2022-08-16T17:02:38.928Z,36.80
2022-08-16T17:04:47.913Z,36.40
2022-08-16T17:07:20.653Z,36.10
2022-08-16T17:09:53.317Z,36.10
2022-08-16T17:12:24.733Z,36.20
2022-08-16T17:15:12.024Z,36.20
2022-08-16T17:18:00.219Z,36.30
2022-08-16T17:20:31.009Z,36.30
2022-08-16T17:23:01.067Z,36.20
2022-08-16T17:25:36.861Z,35.80
2022-08-16T17:28:59.113Z,35.10
2022-08-16T17:30:58.481Z,34.60
2022-08-16T17:33:28.553Z,34.10
2022-08-16T17:36:08.531Z,33.60
2022-08-16T17:38:43.873Z,33.20
2022-08-16T17:41:15.650Z,33.00
2022-08-16T17:43:46.094Z,32.80
2022-08-16T17:46:50.446Z,32.60
2022-08-16T17:51:34.744Z,32.30
2022-08-16T17:54:04.809Z,32.00
2022-08-16T17:56:33.528Z,31.80
2022-08-16T18:01:30.710Z,31.40
2022-08-16T18:09:10.439Z,30.50
2022-08-16T18:14:15.885Z,30.10
2022-08-16T18:16:45.542Z,29.90
2022-08-16T18:19:13.898Z,29.70
2022-08-16T18:22:00.209Z,29.50
2022-08-16T18:24:31.196Z,29.30
2022-08-16T18:27:24.779Z,29.20
2022-08-16T18:29:52.129Z,29.00
2022-08-16T18:32:22.162Z,29.00
2022-08-16T18:34:54.269Z,28.90
2022-08-16T18:37:23.503Z,28.70
2022-08-16T18:39:53.419Z,28.70
2022-08-16T18:42:21.825Z,28.60
2022-08-16T18:44:50.154Z,28.30
2022-08-16T18:47:18.602Z,28.40
2022-08-16T18:49:47.021Z,28.30
2022-08-16T18:52:25.493Z,28.20
2022-08-16T18:55:01.969Z,28.10
2022-08-16T19:02:57.317Z,27.90
2022-08-16T19:05:24.640Z,27.80
2022-08-16T19:07:53.521Z,27.70
2022-08-16T19:10:23.540Z,27.60
2022-08-16T19:12:52.329Z,27.60
2022-08-16T19:15:25.963Z,27.50
2022-08-16T19:17:55.131Z,27.40
2022-08-16T19:20:26.776Z,27.30
2022-08-16T19:23:05.836Z,27.30
2022-08-16T19:25:47.245Z,27.20
2022-08-16T19:28:21.829Z,26.70
2022-08-16T19:31:14.625Z,27.00
2022-08-16T19:33:53.859Z,26.90
2022-08-16T19:36:31.639Z,26.90
2022-08-16T19:39:05.905Z,26.80
2022-08-16T19:41:38.123Z,26.70
2022-08-16T19:44:07.739Z,26.60
2022-08-16T19:46:37.761Z,26.50
2022-08-16T19:49:06.852Z,26.40
2022-08-16T19:51:35.264Z,26.40
2022-08-16T19:54:03.819Z,26.30
2022-08-16T19:56:32.226Z,26.20
2022-08-16T19:59:18.542Z,26.10
2022-08-16T20:01:52.541Z,26.00
2022-08-16T20:04:22.182Z,25.80
2022-08-16T20:09:21.786Z,25.60
2022-08-16T20:11:52.054Z,25.50
2022-08-16T20:14:25.185Z,25.40
2022-08-16T20:16:57.606Z,25.40
2022-08-16T20:19:27.643Z,25.30
2022-08-16T20:22:01.631Z,25.30
2022-08-16T20:24:35.186Z,25.20
2022-08-16T20:27:09.457Z,25.20
2022-08-16T20:29:44.594Z,25.10
2022-08-16T20:32:16.698Z,25.10
2022-08-16T20:34:47.817Z,25.00
2022-08-16T20:37:16.661Z,24.90
2022-08-16T20:39:46.508Z,24.90
2022-08-16T20:42:18.975Z,24.80
2022-08-16T20:44:49.876Z,24.70
2022-08-16T20:47:18.349Z,24.70
2022-08-16T20:49:46.735Z,24.60
2022-08-16T20:52:17.578Z,24.60
2022-08-16T20:54:47.305Z,24.50
2022-08-16T20:57:17.401Z,24.50
2022-08-16T20:59:50.004Z,24.40
2022-08-16T21:02:28.134Z,24.40
2022-08-16T21:04:56.619Z,24.30
2022-08-16T21:07:25.355Z,24.30
2022-08-16T21:09:54.229Z,24.20
2022-08-16T21:12:23.464Z,24.20
2022-08-16T21:14:55.742Z,24.20
2022-08-16T21:17:25.466Z,24.20
2022-08-16T21:19:54.356Z,24.10
2022-08-16T21:22:24.283Z,24.00
2022-08-16T21:24:53.966Z,24.00
2022-08-16T21:27:24.314Z,24.00
2022-08-16T21:29:54.711Z,23.90
2022-08-16T21:32:35.668Z,23.90
2022-08-16T21:35:12.150Z,23.90
2022-08-16T21:40:12.131Z,23.70
2022-08-16T21:42:42.958Z,23.70
2022-08-16T21:45:15.100Z,23.70
2022-08-16T21:47:45.149Z,23.50
2022-08-16T21:50:15.238Z,23.50
2022-08-16T21:52:44.073Z,23.50
2022-08-16T21:55:12.566Z,23.40
2022-08-16T21:57:40.951Z,23.40
2022-08-16T22:00:14.627Z,23.30
2022-08-16T22:02:49.147Z,23.30
2022-08-16T22:05:19.392Z,23.20
2022-08-16T22:07:47.720Z,23.20
2022-08-16T22:11:06.477Z,23.10
2022-08-16T22:13:05.628Z,23.10
2022-08-16T22:15:34.215Z,23.00
2022-08-16T22:18:04.077Z,23.00
2022-08-16T22:20:32.746Z,22.90
2022-08-16T22:23:12.069Z,22.90
2022-08-16T22:25:44.174Z,22.90
2022-08-16T22:28:13.009Z,22.80
2022-08-16T22:30:42.067Z,22.70
2022-08-16T22:33:14.974Z,22.60
2022-08-16T22:35:46.862Z,22.60
2022-08-16T22:38:55.278Z,22.50
2022-08-16T22:41:05.989Z,22.50
2022-08-16T22:46:03.106Z,22.30
2022-08-16T22:48:39.443Z,22.30
2022-08-16T22:51:11.045Z,22.20
2022-08-16T22:53:39.431Z,22.20
2022-08-16T22:56:08.294Z,22.20
2022-08-16T22:58:37.362Z,22.10
2022-08-16T23:01:07.371Z,22.10
2022-08-16T23:03:38.276Z,22.10
2022-08-16T23:06:08.052Z,22.00
2022-08-16T23:08:40.933Z,22.00
2022-08-16T23:11:12.079Z,22.00
2022-08-16T23:13:50.718Z,22.00
2022-08-16T23:16:33.051Z,22.00
2022-08-16T23:19:06.155Z,21.90
2022-08-16T23:21:37.329Z,21.90
2022-08-16T23:24:06.800Z,21.90
2022-08-16T23:26:45.693Z,21.80
2022-08-16T23:29:23.643Z,21.80
2022-08-16T23:31:58.094Z,21.70
2022-08-16T23:34:29.542Z,21.80
2022-08-16T23:36:58.352Z,21.70
2022-08-16T23:39:26.999Z,21.70
2022-08-16T23:41:55.639Z,21.70
2022-08-16T23:44:56.410Z,21.60
2022-08-16T23:47:12.573Z,21.60
2022-08-16T23:50:01.597Z,21.60
2022-08-16T23:55:19.561Z,21.50
